sensor_id;sensor_type;location;lat;lon;timestamp;P1;durP1;ratioP1;P2;durP2;ratioP2
27357;SDS011;14831;50.474;7.616;2024-02-23T00:02:47;2.3;;;0.6;;
27357;SDS011;14831;50.474;7.616;2024-02-23T00:07:47;2.3;;;0.6;;
27357;SDS011;14831;50.474;7.616;2024-02-23T00:12:47;2.3;;;0.6;;
27357;SDS011;14831;50.474;7.616;2024-02-23T00:17:47;2.3;;;0.6;;
27357;SDS011;14831;50.474;7.616;2024-02-23T00:22:47;2.3;;;0.6;;
27357;SDS011;14831;50.474;7.616;2024-02-23T00:27:47;2.3;;;0.6;;
27357;SDS011;14831;50.474;7.616;2024-02-23T00:32:47;1.0;;;0.6;;
27357;SDS011;14831;50.474;7.616;2024-02-23T00:37:47;1.0;;;0.6;;
27357;SDS011;14831;50.474;7.616;2024-02-23T00:42:47;1.0;;;0.6;;
27357;SDS011;14831;50.474;7.616;2024-02-23T00:47:47;1.0;;;0.6;;
27357;SDS011;14831;50.474;7.616;2024-02-23T00:52:47;1.0;;;0.6;;
27357;SDS011;14831;50.474;7.616;2024-02-23T00:57:47;1.0;;;0.6;;
27357;SDS011;14831;50.474;7.616;2024-02-23T01:02:47;1.6;;;0.5;;
27357;SDS011;14831;50.474;7.616;2024-02-23T01:07:47;1.6;;;0.5;;
27357;SDS011;14831;50.474;7.616;2024-02-23T01:12:47;1.6;;;0.5;;
27357;SDS011;14831;50.474;7.616;2024-02-23T01:17:48;1.6;;;0.5;;
27357;SDS011;14831;50.474;7.616;2024-02-23T01:22:47;1.6;;;0.5;;
27357;SDS011;14831;50.474;7.616;2024-02-23T01:27:47;1.6;;;0.5;;
27357;SDS011;14831;50.474;7.616;2024-02-23T01:32:47;1.8;;;0.8;;
27357;SDS011;14831;50.474;7.616;2024-02-23T01:37:47;1.8;;;0.8;;
27357;SDS011;14831;50.474;7.616;2024-02-23T01:42:47;1.8;;;0.8;;
27357;SDS011;14831;50.474;7.616;2024-02-23T01:47:47;1.8;;;0.8;;
27357;SDS011;14831;50.474;7.616;2024-02-23T01:52:48;1.8;;;0.8;;
27357;SDS011;14831;50.474;7.616;2024-02-23T01:57:47;1.8;;;0.8;;
27357;SDS011;14831;50.474;7.616;2024-02-23T02:02:48;1.9;;;0.4;;
27357;SDS011;14831;50.474;7.616;2024-02-23T02:07:49;1.9;;;0.4;;
27357;SDS011;14831;50.474;7.616;2024-02-23T02:12:47;1.9;;;0.4;;
27357;SDS011;14831;50.474;7.616;2024-02-23T02:17:48;1.9;;;0.4;;
27357;SDS011;14831;50.474;7.616;2024-02-23T02:22:47;1.9;;;0.4;;
27357;SDS011;14831;50.474;7.616;2024-02-23T02:27:47;1.9;;;0.4;;
27357;SDS011;14831;50.474;7.616;2024-02-23T02:32:47;0.7;;;0.5;;
27357;SDS011;14831;50.474;7.616;2024-02-23T02:37:47;0.7;;;0.5;;
27357;SDS011;14831;50.474;7.616;2024-02-23T02:42:47;0.7;;;0.5;;
27357;SDS011;14831;50.474;7.616;2024-02-23T02:47:47;0.7;;;0.5;;
27357;SDS011;14831;50.474;7.616;2024-02-23T02:52:47;0.7;;;0.5;;
27357;SDS011;14831;50.474;7.616;2024-02-23T02:57:47;0.7;;;0.5;;
27357;SDS011;14831;50.474;7.616;2024-02-23T03:02:47;3.7;;;0.8;;
27357;SDS011;14831;50.474;7.616;2024-02-23T03:07:47;3.7;;;0.8;;
27357;SDS011;14831;50.474;7.616;2024-02-23T03:12:47;3.7;;;0.8;;
27357;SDS011;14831;50.474;7.616;2024-02-23T03:17:48;3.7;;;0.8;;
27357;SDS011;14831;50.474;7.616;2024-02-23T03:22:47;3.7;;;0.8;;
27357;SDS011;14831;50.474;7.616;2024-02-23T03:27:47;3.7;;;0.8;;
27357;SDS011;14831;50.474;7.616;2024-02-23T03:32:47;2.8;;;0.9;;
27357;SDS011;14831;50.474;7.616;2024-02-23T03:37:47;2.8;;;0.9;;
27357;SDS011;14831;50.474;7.616;2024-02-23T03:42:47;2.8;;;0.9;;
27357;SDS011;14831;50.474;7.616;2024-02-23T03:47:47;2.8;;;0.9;;
27357;SDS011;14831;50.474;7.616;2024-02-23T03:52:47;2.8;;;0.9;;
27357;SDS011;14831;50.474;7.616;2024-02-23T03:57:47;2.8;;;0.9;;
27357;SDS011;14831;50.474;7.616;2024-02-23T04:02:47;2.7;;;1.0;;
27357;SDS011;14831;50.474;7.616;2024-02-23T04:07:47;2.7;;;1.0;;
27357;SDS011;14831;50.474;7.616;2024-02-23T04:12:47;2.7;;;1.0;;
27357;SDS011;14831;50.474;7.616;2024-02-23T04:17:48;2.7;;;1.0;;
27357;SDS011;14831;50.474;7.616;2024-02-23T04:22:47;2.7;;;1.0;;
27357;SDS011;14831;50.474;7.616;2024-02-23T04:27:47;2.7;;;1.0;;
27357;SDS011;14831;50.474;7.616;2024-02-23T04:32:47;3.2;;;1.0;;
27357;SDS011;14831;50.474;7.616;2024-02-23T04:37:47;3.2;;;1.0;;
27357;SDS011;14831;50.474;7.616;2024-02-23T04:42:47;3.2;;;1.0;;
27357;SDS011;14831;50.474;7.616;2024-02-23T04:47:47;3.2;;;1.0;;
27357;SDS011;14831;50.474;7.616;2024-02-23T04:52:47;3.2;;;1.0;;
27357;SDS011;14831;50.474;7.616;2024-02-23T04:57:47;3.2;;;1.0;;
27357;SDS011;14831;50.474;7.616;2024-02-23T05:02:47;1.4;;;1.0;;
27357;SDS011;14831;50.474;7.616;2024-02-23T05:07:47;1.4;;;1.0;;
27357;SDS011;14831;50.474;7.616;2024-02-23T05:12:47;1.4;;;1.0;;
27357;SDS011;14831;50.474;7.616;2024-02-23T05:17:48;1.4;;;1.0;;
27357;SDS011;14831;50.474;7.616;2024-02-23T05:22:47;1.4;;;1.0;;
27357;SDS011;14831;50.474;7.616;2024-02-23T05:27:47;1.4;;;1.0;;
27357;SDS011;14831;50.474;7.616;2024-02-23T05:32:48;14.1;;;6.8;;
27357;SDS011;14831;50.474;7.616;2024-02-23T05:37:47;14.1;;;6.8;;
27357;SDS011;14831;50.474;7.616;2024-02-23T05:42:47;14.1;;;6.8;;
27357;SDS011;14831;50.474;7.616;2024-02-23T05:47:47;14.1;;;6.8;;
27357;SDS011;14831;50.474;7.616;2024-02-23T05:52:47;14.1;;;6.8;;
27357;SDS011;14831;50.474;7.616;2024-02-23T05:57:47;14.1;;;6.8;;
27357;SDS011;14831;50.474;7.616;2024-02-23T06:02:47;6.8;;;1.9;;
27357;SDS011;14831;50.474;7.616;2024-02-23T06:07:47;6.8;;;1.9;;
27357;SDS011;14831;50.474;7.616;2024-02-23T06:12:47;6.8;;;1.9;;
27357;SDS011;14831;50.474;7.616;2024-02-23T06:17:47;6.8;;;1.9;;
27357;SDS011;14831;50.474;7.616;2024-02-23T06:22:47;6.8;;;1.9;;
27357;SDS011;14831;50.474;7.616;2024-02-23T06:27:47;6.8;;;1.9;;
27357;SDS011;14831;50.474;7.616;2024-02-23T06:32:47;8.1;;;2.6;;
27357;SDS011;14831;50.474;7.616;2024-02-23T06:37:47;8.1;;;2.6;;
27357;SDS011;14831;50.474;7.616;2024-02-23T06:42:47;8.1;;;2.6;;
27357;SDS011;14831;50.474;7.616;2024-02-23T06:47:47;8.1;;;2.6;;
27357;SDS011;14831;50.474;7.616;2024-02-23T06:52:48;8.1;;;2.6;;
27357;SDS011;14831;50.474;7.616;2024-02-23T06:57:48;8.1;;;2.6;;
27357;SDS011;14831;50.474;7.616;2024-02-23T07:02:47;11.1;;;4.8;;
27357;SDS011;14831;50.474;7.616;2024-02-23T07:07:47;11.1;;;4.8;;
27357;SDS011;14831;50.474;7.616;2024-02-23T07:12:47;11.1;;;4.8;;
27357;SDS011;14831;50.474;7.616;2024-02-23T07:17:47;11.1;;;4.8;;
27357;SDS011;14831;50.474;7.616;2024-02-23T07:22:48;11.1;;;4.8;;
27357;SDS011;14831;50.474;7.616;2024-02-23T07:27:48;11.1;;;4.8;;
27357;SDS011;14831;50.474;7.616;2024-02-23T07:32:48;8.1;;;1.8;;
27357;SDS011;14831;50.474;7.616;2024-02-23T07:37:47;8.1;;;1.8;;
27357;SDS011;14831;50.474;7.616;2024-02-23T07:42:47;8.1;;;1.8;;
27357;SDS011;14831;50.474;7.616;2024-02-23T07:47:47;8.1;;;1.8;;
27357;SDS011;14831;50.474;7.616;2024-02-23T07:52:47;8.1;;;1.8;;
27357;SDS011;14831;50.474;7.616;2024-02-23T07:57:48;8.1;;;1.8;;
27357;SDS011;14831;50.474;7.616;2024-02-23T08:02:47;7.8;;;1.4;;
27357;SDS011;14831;50.474;7.616;2024-02-23T08:07:47;7.8;;;1.4;;
27357;SDS011;14831;50.474;7.616;2024-02-23T08:12:47;7.8;;;1.4;;
27357;SDS011;14831;50.474;7.616;2024-02-23T08:17:47;7.8;;;1.4;;
27357;SDS011;14831;50.474;7.616;2024-02-23T08:22:47;7.8;;;1.4;;
27357;SDS011;14831;50.474;7.616;2024-02-23T08:27:47;7.8;;;1.4;;
27357;SDS011;14831;50.474;7.616;2024-02-23T08:32:47;6.5;;;1.2;;
27357;SDS011;14831;50.474;7.616;2024-02-23T08:37:47;6.5;;;1.2;;
27357;SDS011;14831;50.474;7.616;2024-02-23T08:42:47;6.5;;;1.2;;
27357;SDS011;14831;50.474;7.616;2024-02-23T08:47:47;6.5;;;1.2;;
27357;SDS011;14831;50.474;7.616;2024-02-23T08:52:47;6.5;;;1.2;;
27357;SDS011;14831;50.474;7.616;2024-02-23T08:57:47;6.5;;;1.2;;
27357;SDS011;14831;50.474;7.616;2024-02-23T09:02:47;4.1;;;1.2;;
27357;SDS011;14831;50.474;7.616;2024-02-23T09:07:47;4.1;;;1.2;;
27357;SDS011;14831;50.474;7.616;2024-02-23T09:12:47;4.1;;;1.2;;
27357;SDS011;14831;50.474;7.616;2024-02-23T09:17:48;4.1;;;1.2;;
27357;SDS011;14831;50.474;7.616;2024-02-23T09:22:47;4.1;;;1.2;;
27357;SDS011;14831;50.474;7.616;2024-02-23T09:27:47;4.1;;;1.2;;
27357;SDS011;14831;50.474;7.616;2024-02-23T09:32:47;4.8;;;1.1;;
27357;SDS011;14831;50.474;7.616;2024-02-23T09:37:47;4.8;;;1.1;;
27357;SDS011;14831;50.474;7.616;2024-02-23T09:42:51;4.8;;;1.1;;
27357;SDS011;14831;50.474;7.616;2024-02-23T09:47:48;4.8;;;1.1;;
27357;SDS011;14831;50.474;7.616;2024-02-23T09:52:47;4.8;;;1.1;;
27357;SDS011;14831;50.474;7.616;2024-02-23T09:57:48;4.8;;;1.1;;
27357;SDS011;14831;50.474;7.616;2024-02-23T10:02:48;13.9;;;2.4;;
27357;SDS011;14831;50.474;7.616;2024-02-23T10:07:47;13.9;;;2.4;;
27357;SDS011;14831;50.474;7.616;2024-02-23T10:12:47;13.9;;;2.4;;
27357;SDS011;14831;50.474;7.616;2024-02-23T10:17:47;13.9;;;2.4;;
27357;SDS011;14831;50.474;7.616;2024-02-23T10:22:47;13.9;;;2.4;;
27357;SDS011;14831;50.474;7.616;2024-02-23T10:27:48;13.9;;;2.4;;
27357;SDS011;14831;50.474;7.616;2024-02-23T10:32:48;9.6;;;3.2;;
27357;SDS011;14831;50.474;7.616;2024-02-23T10:37:49;9.6;;;3.2;;
27357;SDS011;14831;50.474;7.616;2024-02-23T10:42:48;9.6;;;3.2;;
27357;SDS011;14831;50.474;7.616;2024-02-23T10:47:48;9.6;;;3.2;;
27357;SDS011;14831;50.474;7.616;2024-02-23T10:52:48;9.6;;;3.2;;
27357;SDS011;14831;50.474;7.616;2024-02-23T10:57:48;9.6;;;3.2;;
27357;SDS011;14831;50.474;7.616;2024-02-23T11:02:51;4.7;;;1.4;;
27357;SDS011;14831;50.474;7.616;2024-02-23T11:07:47;4.7;;;1.4;;
27357;SDS011;14831;50.474;7.616;2024-02-23T11:12:57;4.7;;;1.4;;
27357;SDS011;14831;50.474;7.616;2024-02-23T11:17:49;4.7;;;1.4;;
27357;SDS011;14831;50.474;7.616;2024-02-23T11:22:51;4.7;;;1.4;;
27357;SDS011;14831;50.474;7.616;2024-02-23T11:27:49;4.7;;;1.4;;
27357;SDS011;14831;50.474;7.616;2024-02-23T11:32:48;4.8;;;1.0;;
27357;SDS011;14831;50.474;7.616;2024-02-23T11:37:49;4.8;;;1.0;;
27357;SDS011;14831;50.474;7.616;2024-02-23T11:42:47;4.8;;;1.0;;
27357;SDS011;14831;50.474;7.616;2024-02-23T11:47:47;4.8;;;1.0;;
27357;SDS011;14831;50.474;7.616;2024-02-23T11:52:47;4.8;;;1.0;;
27357;SDS011;14831;50.474;7.616;2024-02-23T11:57:48;4.8;;;1.0;;
27357;SDS011;14831;50.474;7.616;2024-02-23T12:02:47;3.8;;;1.1;;
27357;SDS011;14831;50.474;7.616;2024-02-23T12:07:48;3.8;;;1.1;;
27357;SDS011;14831;50.474;7.616;2024-02-23T12:12:47;3.8;;;1.1;;
27357;SDS011;14831;50.474;7.616;2024-02-23T12:17:48;3.8;;;1.1;;
27357;SDS011;14831;50.474;7.616;2024-02-23T12:22:47;3.8;;;1.1;;
27357;SDS011;14831;50.474;7.616;2024-02-23T12:27:54;3.8;;;1.1;;
27357;SDS011;14831;50.474;7.616;2024-02-23T12:32:47;4.2;;;1.4;;
27357;SDS011;14831;50.474;7.616;2024-02-23T12:37:47;4.2;;;1.4;;
27357;SDS011;14831;50.474;7.616;2024-02-23T12:42:47;4.2;;;1.4;;
27357;SDS011;14831;50.474;7.616;2024-02-23T12:47:47;4.2;;;1.4;;
27357;SDS011;14831;50.474;7.616;2024-02-23T12:52:47;4.2;;;1.4;;
27357;SDS011;14831;50.474;7.616;2024-02-23T12:57:47;4.2;;;1.4;;
27357;SDS011;14831;50.474;7.616;2024-02-23T13:02:47;3.6;;;0.9;;
27357;SDS011;14831;50.474;7.616;2024-02-23T13:07:47;3.6;;;0.9;;
27357;SDS011;14831;50.474;7.616;2024-02-23T13:12:47;3.6;;;0.9;;
27357;SDS011;14831;50.474;7.616;2024-02-23T13:17:47;3.6;;;0.9;;
27357;SDS011;14831;50.474;7.616;2024-02-23T13:22:47;3.6;;;0.9;;
27357;SDS011;14831;50.474;7.616;2024-02-23T13:27:48;3.6;;;0.9;;
27357;SDS011;14831;50.474;7.616;2024-02-23T13:32:47;3.3;;;1.1;;
27357;SDS011;14831;50.474;7.616;2024-02-23T13:37:47;3.3;;;1.1;;
27357;SDS011;14831;50.474;7.616;2024-02-23T13:42:47;3.3;;;1.1;;
27357;SDS011;14831;50.474;7.616;2024-02-23T13:47:56;3.3;;;1.1;;
27357;SDS011;14831;50.474;7.616;2024-02-23T13:52:48;3.3;;;1.1;;
27357;SDS011;14831;50.474;7.616;2024-02-23T13:57:48;3.3;;;1.1;;
27357;SDS011;14831;50.474;7.616;2024-02-23T14:02:48;3.2;;;1.1;;
27357;SDS011;14831;50.474;7.616;2024-02-23T14:07:48;3.2;;;1.1;;
27357;SDS011;14831;50.474;7.616;2024-02-23T14:12:47;3.2;;;1.1;;
27357;SDS011;14831;50.474;7.616;2024-02-23T14:17:48;3.2;;;1.1;;
27357;SDS011;14831;50.474;7.616;2024-02-23T14:22:47;3.2;;;1.1;;
27357;SDS011;14831;50.474;7.616;2024-02-23T14:27:47;3.2;;;1.1;;
27357;SDS011;14831;50.474;7.616;2024-02-23T14:32:48;7.8;;;3.5;;
27357;SDS011;14831;50.474;7.616;2024-02-23T14:37:47;7.8;;;3.5;;
27357;SDS011;14831;50.474;7.616;2024-02-23T14:42:48;7.8;;;3.5;;
27357;SDS011;14831;50.474;7.616;2024-02-23T14:47:47;7.8;;;3.5;;
27357;SDS011;14831;50.474;7.616;2024-02-23T14:52:47;7.8;;;3.5;;
27357;SDS011;14831;50.474;7.616;2024-02-23T14:57:47;7.8;;;3.5;;
27357;SDS011;14831;50.474;7.616;2024-02-23T15:02:47;27.0;;;10.4;;
27357;SDS011;14831;50.474;7.616;2024-02-23T15:07:48;27.0;;;10.4;;
27357;SDS011;14831;50.474;7.616;2024-02-23T15:12:47;27.0;;;10.4;;
27357;SDS011;14831;50.474;7.616;2024-02-23T15:17:48;27.0;;;10.4;;
27357;SDS011;14831;50.474;7.616;2024-02-23T15:22:47;27.0;;;10.4;;
27357;SDS011;14831;50.474;7.616;2024-02-23T15:27:47;27.0;;;10.4;;
27357;SDS011;14831;50.474;7.616;2024-02-23T15:32:48;4.0;;;0.9;;
27357;SDS011;14831;50.474;7.616;2024-02-23T15:37:48;4.0;;;0.9;;
27357;SDS011;14831;50.474;7.616;2024-02-23T15:42:48;4.0;;;0.9;;
27357;SDS011;14831;50.474;7.616;2024-02-23T15:47:47;4.0;;;0.9;;
27357;SDS011;14831;50.474;7.616;2024-02-23T15:52:47;4.0;;;0.9;;
27357;SDS011;14831;50.474;7.616;2024-02-23T15:57:48;4.0;;;0.9;;
27357;SDS011;14831;50.474;7.616;2024-02-23T16:02:48;2.4;;;1.2;;
27357;SDS011;14831;50.474;7.616;2024-02-23T16:07:47;2.4;;;1.2;;
27357;SDS011;14831;50.474;7.616;2024-02-23T16:12:49;2.4;;;1.2;;
27357;SDS011;14831;50.474;7.616;2024-02-23T16:17:48;2.4;;;1.2;;
27357;SDS011;14831;50.474;7.616;2024-02-23T16:22:47;2.4;;;1.2;;
27357;SDS011;14831;50.474;7.616;2024-02-23T16:27:47;2.4;;;1.2;;
27357;SDS011;14831;50.474;7.616;2024-02-23T16:32:47;15.7;;;9.7;;
27357;SDS011;14831;50.474;7.616;2024-02-23T16:37:47;15.7;;;9.7;;
27357;SDS011;14831;50.474;7.616;2024-02-23T16:42:47;15.7;;;9.7;;
27357;SDS011;14831;50.474;7.616;2024-02-23T16:47:47;15.7;;;9.7;;
27357;SDS011;14831;50.474;7.616;2024-02-23T16:52:48;15.7;;;9.7;;
27357;SDS011;14831;50.474;7.616;2024-02-23T16:57:47;15.7;;;9.7;;
27357;SDS011;14831;50.474;7.616;2024-02-23T17:02:48;5.0;;;1.3;;
27357;SDS011;14831;50.474;7.616;2024-02-23T17:07:48;5.0;;;1.3;;
27357;SDS011;14831;50.474;7.616;2024-02-23T17:12:47;5.0;;;1.3;;
27357;SDS011;14831;50.474;7.616;2024-02-23T17:17:47;5.0;;;1.3;;
27357;SDS011;14831;50.474;7.616;2024-02-23T17:22:47;5.0;;;1.3;;
27357;SDS011;14831;50.474;7.616;2024-02-23T17:27:47;5.0;;;1.3;;
27357;SDS011;14831;50.474;7.616;2024-02-23T17:32:47;22.3;;;10.7;;
27357;SDS011;14831;50.474;7.616;2024-02-23T17:37:48;22.3;;;10.7;;
27357;SDS011;14831;50.474;7.616;2024-02-23T17:42:48;22.3;;;10.7;;
27357;SDS011;14831;50.474;7.616;2024-02-23T17:47:47;22.3;;;10.7;;
27357;SDS011;14831;50.474;7.616;2024-02-23T17:52:47;22.3;;;10.7;;
27357;SDS011;14831;50.474;7.616;2024-02-23T17:57:47;22.3;;;10.7;;
27357;SDS011;14831;50.474;7.616;2024-02-23T18:02:48;2.0;;;1.6;;
27357;SDS011;14831;50.474;7.616;2024-02-23T18:07:47;2.0;;;1.6;;
27357;SDS011;14831;50.474;7.616;2024-02-23T18:12:47;2.0;;;1.6;;
27357;SDS011;14831;50.474;7.616;2024-02-23T18:17:47;2.0;;;1.6;;
27357;SDS011;14831;50.474;7.616;2024-02-23T18:22:47;2.0;;;1.6;;
27357;SDS011;14831;50.474;7.616;2024-02-23T18:27:47;2.0;;;1.6;;
27357;SDS011;14831;50.474;7.616;2024-02-23T18:32:47;3.5;;;1.2;;
27357;SDS011;14831;50.474;7.616;2024-02-23T18:37:47;3.5;;;1.2;;
27357;SDS011;14831;50.474;7.616;2024-02-23T18:42:48;3.5;;;1.2;;
27357;SDS011;14831;50.474;7.616;2024-02-23T18:47:47;3.5;;;1.2;;
27357;SDS011;14831;50.474;7.616;2024-02-23T18:52:47;3.5;;;1.2;;
27357;SDS011;14831;50.474;7.616;2024-02-23T18:57:47;3.5;;;1.2;;
27357;SDS011;14831;50.474;7.616;2024-02-23T19:02:49;3.0;;;1.6;;
27357;SDS011;14831;50.474;7.616;2024-02-23T19:07:47;3.0;;;1.6;;
27357;SDS011;14831;50.474;7.616;2024-02-23T19:12:47;3.0;;;1.6;;
27357;SDS011;14831;50.474;7.616;2024-02-23T19:17:48;3.0;;;1.6;;
27357;SDS011;14831;50.474;7.616;2024-02-23T19:22:47;3.0;;;1.6;;
27357;SDS011;14831;50.474;7.616;2024-02-23T19:27:47;3.0;;;1.6;;
27357;SDS011;14831;50.474;7.616;2024-02-23T19:32:48;2.2;;;1.0;;
27357;SDS011;14831;50.474;7.616;2024-02-23T19:37:47;2.2;;;1.0;;
27357;SDS011;14831;50.474;7.616;2024-02-23T19:42:49;2.2;;;1.0;;
27357;SDS011;14831;50.474;7.616;2024-02-23T19:47:47;2.2;;;1.0;;
27357;SDS011;14831;50.474;7.616;2024-02-23T19:52:47;2.2;;;1.0;;
27357;SDS011;14831;50.474;7.616;2024-02-23T19:57:47;2.2;;;1.0;;
27357;SDS011;14831;50.474;7.616;2024-02-23T20:02:47;3.7;;;1.5;;
27357;SDS011;14831;50.474;7.616;2024-02-23T20:07:47;3.7;;;1.5;;
27357;SDS011;14831;50.474;7.616;2024-02-23T20:12:47;3.7;;;1.5;;
27357;SDS011;14831;50.474;7.616;2024-02-23T20:17:47;3.7;;;1.5;;
27357;SDS011;14831;50.474;7.616;2024-02-23T20:22:47;3.7;;;1.5;;
27357;SDS011;14831;50.474;7.616;2024-02-23T20:27:47;3.7;;;1.5;;
27357;SDS011;14831;50.474;7.616;2024-02-23T20:32:47;5.6;;;2.7;;
27357;SDS011;14831;50.474;7.616;2024-02-23T20:37:47;5.6;;;2.7;;
27357;SDS011;14831;50.474;7.616;2024-02-23T20:42:47;5.6;;;2.7;;
27357;SDS011;14831;50.474;7.616;2024-02-23T20:47:47;5.6;;;2.7;;
27357;SDS011;14831;50.474;7.616;2024-02-23T20:52:47;5.6;;;2.7;;
27357;SDS011;14831;50.474;7.616;2024-02-23T20:57:47;5.6;;;2.7;;
27357;SDS011;14831;50.474;7.616;2024-02-23T21:02:48;5.8;;;2.0;;
27357;SDS011;14831;50.474;7.616;2024-02-23T21:07:47;5.8;;;2.0;;
27357;SDS011;14831;50.474;7.616;2024-02-23T21:12:47;5.8;;;2.0;;
27357;SDS011;14831;50.474;7.616;2024-02-23T21:17:47;5.8;;;2.0;;
27357;SDS011;14831;50.474;7.616;2024-02-23T21:22:47;5.8;;;2.0;;
27357;SDS011;14831;50.474;7.616;2024-02-23T21:27:47;5.8;;;2.0;;
27357;SDS011;14831;50.474;7.616;2024-02-23T21:32:47;2.5;;;1.1;;
27357;SDS011;14831;50.474;7.616;2024-02-23T21:37:47;2.5;;;1.1;;
27357;SDS011;14831;50.474;7.616;2024-02-23T21:42:47;2.5;;;1.1;;
27357;SDS011;14831;50.474;7.616;2024-02-23T21:47:47;2.5;;;1.1;;
27357;SDS011;14831;50.474;7.616;2024-02-23T21:52:47;2.5;;;1.1;;
27357;SDS011;14831;50.474;7.616;2024-02-23T21:57:47;2.5;;;1.1;;
27357;SDS011;14831;50.474;7.616;2024-02-23T22:02:48;3.2;;;1.5;;
27357;SDS011;14831;50.474;7.616;2024-02-23T22:07:47;3.2;;;1.5;;
27357;SDS011;14831;50.474;7.616;2024-02-23T22:12:47;3.2;;;1.5;;
27357;SDS011;14831;50.474;7.616;2024-02-23T22:17:47;3.2;;;1.5;;
27357;SDS011;14831;50.474;7.616;2024-02-23T22:22:47;3.2;;;1.5;;
27357;SDS011;14831;50.474;7.616;2024-02-23T22:27:47;3.2;;;1.5;;
27357;SDS011;14831;50.474;7.616;2024-02-23T22:32:47;5.0;;;2.7;;
27357;SDS011;14831;50.474;7.616;2024-02-23T22:37:47;5.0;;;2.7;;
27357;SDS011;14831;50.474;7.616;2024-02-23T22:42:47;5.0;;;2.7;;
27357;SDS011;14831;50.474;7.616;2024-02-23T22:47:47;5.0;;;2.7;;
27357;SDS011;14831;50.474;7.616;2024-02-23T22:52:47;5.0;;;2.7;;
27357;SDS011;14831;50.474;7.616;2024-02-23T22:57:47;5.0;;;2.7;;
27357;SDS011;14831;50.474;7.616;2024-02-23T23:02:47;5.6;;;2.7;;
27357;SDS011;14831;50.474;7.616;2024-02-23T23:07:47;5.6;;;2.7;;
27357;SDS011;14831;50.474;7.616;2024-02-23T23:12:47;5.6;;;2.7;;
27357;SDS011;14831;50.474;7.616;2024-02-23T23:17:47;5.6;;;2.7;;
27357;SDS011;14831;50.474;7.616;2024-02-23T23:22:47;5.6;;;2.7;;
27357;SDS011;14831;50.474;7.616;2024-02-23T23:27:47;5.6;;;2.7;;
27357;SDS011;14831;50.474;7.616;2024-02-23T23:32:47;7.2;;;4.3;;
27357;SDS011;14831;50.474;7.616;2024-02-23T23:37:47;7.2;;;4.3;;
27357;SDS011;14831;50.474;7.616;2024-02-23T23:42:47;7.2;;;4.3;;
27357;SDS011;14831;50.474;7.616;2024-02-23T23:47:47;7.2;;;4.3;;
27357;SDS011;14831;50.474;7.616;2024-02-23T23:52:47;7.2;;;4.3;;
27357;SDS011;14831;50.474;7.616;2024-02-23T23:57:47;7.2;;;4.3;;
